Time;durP1;ratioP1;P1;durP2;ratioP2;P2;SDS_P1;SDS_P2;PMS_P1;PMS_P2;Temp;Humidity;BMP_temperature;BMP_pressure;BME280_temperature;BME280_humidity;BME280_pressure;Samples;Min_cycle;Max_cycle;Signal;HPM_P1;HPM_P2
2021/04/21 00:42:08;;;;;;;17.45;11.02;;;9.50;99.90;;;;;;3525468;40;20028;-89
2021/04/21 00:44:54;;;;;;;18.67;11.13;;;9.40;99.90;;;;;;3521062;40;20044;-90
2021/04/21 00:47:31;;;;;;;;;;;9.50;99.90;;;;;;3498243;41;20036;-87
2021/04/21 00:50:36;;;;;;;17.55;10.40;;;9.40;99.90;;;;;;3504359;41;19931;-87
2021/04/21 00:53:11;;;;;;;17.80;11.30;;;9.40;99.90;;;;;;3512573;41;20045;-89
2021/04/21 00:56:03;;;;;;;23.73;11.07;;;9.30;99.90;;;;;;3505250;41;20048;-87
2021/04/21 00:58:49;;;;;;;21.10;11.63;;;9.30;99.90;;;;;;3480377;41;20061;-86
2021/04/21 01:01:52;;;;;;;24.48;12.02;;;9.20;99.90;;;;;;3504551;41;20040;-85
2021/04/21 01:04:23;;;;;;;21.98;11.93;;;9.10;99.90;;;;;;3506867;41;20066;-86
2021/04/21 01:07:05;;;;;;;19.58;12.05;;;9.10;99.90;;;;;;3497273;41;20040;-85
2021/04/21 01:10:25;;;;;;;18.45;12.10;;;9.10;99.90;;;;;;3503995;41;20051;-85
2021/04/21 01:12:59;;;;;;;28.08;13.13;;;9.00;99.90;;;;;;3507174;41;20039;-84
2021/04/21 01:15:56;;;;;;;24.10;12.27;;;9.00;99.90;;;;;;3516082;40;20036;-86
2021/04/21 01:18:27;;;;;;;22.27;12.82;;;9.00;99.90;;;;;;3523999;40;20067;-84
2021/04/21 01:21:13;;;;;;;20.65;13.05;;;9.00;99.90;;;;;;3520495;40;20067;-84
2021/04/21 01:24:07;;;;;;;19.85;12.77;;;8.80;99.90;;;;;;3521534;40;20083;-85
2021/04/21 01:27:01;;;;;;;23.40;13.57;;;8.90;99.90;;;;;;3478113;41;20139;-85
2021/04/21 01:29:34;;;;;;;17.52;11.85;;;8.80;99.90;;;;;;3482385;41;20085;-84
2021/04/21 01:32:05;;;;;;;20.77;12.45;;;8.70;99.90;;;;;;3476616;41;20085;-83
2021/04/21 01:34:37;;;;;;;23.92;14.05;;;8.70;99.90;;;;;;3481928;41;20026;-83
2021/04/21 01:37:10;;;;;;;30.17;14.50;;;8.70;99.90;;;;;;3484595;41;20054;-84
2021/04/21 01:39:43;;;;;;;21.33;14.57;;;8.70;99.90;;;;;;3483720;41;20037;-84
2021/04/21 01:42:15;;;;;;;23.63;13.68;;;8.60;99.90;;;;;;3487756;41;20082;-84
2021/04/21 01:44:47;;;;;;;21.73;13.60;;;8.60;99.90;;;;;;3475666;41;20058;-81
2021/04/21 01:47:20;;;;;;;26.35;13.43;;;8.50;99.90;;;;;;3463849;41;20078;-84
2021/04/21 01:50:02;;;;;;;20.17;13.27;;;8.60;99.90;;;;;;3464135;41;20064;-83
2021/04/21 01:52:45;;;;;;;24.13;13.60;;;8.60;99.90;;;;;;3473183;41;20062;-82
2021/04/21 01:55:38;;;;;;;23.40;13.18;;;8.60;99.90;;;;;;3473295;41;20055;-84
2021/04/21 01:58:33;;;;;;;20.65;13.35;;;8.50;99.90;;;;;;3481640;41;20049;-84
2021/04/21 02:01:11;;;;;;;23.15;13.93;;;8.60;99.90;;;;;;3473480;41;20042;-87
2021/04/21 02:03:46;;;;;;;27.65;14.38;;;8.50;99.90;;;;;;3482105;41;20033;-88
2021/04/21 02:06:39;;;;;;;26.50;14.50;;;8.50;99.90;;;;;;3503911;41;20043;-85
2021/04/21 02:10:04;;;;;;;19.23;12.70;;;8.40;99.90;;;;;;3488412;41;20029;-84
2021/04/21 02:12:52;;;;;;;22.48;13.73;;;8.40;99.90;;;;;;3505884;41;20071;-83
2021/04/21 02:15:28;;;;;;;20.80;14.18;;;8.30;99.90;;;;;;3513848;41;20052;-84
2021/04/21 02:18:06;;;;;;;22.70;14.20;;;8.20;99.90;;;;;;3511949;41;20051;-84
2021/04/21 02:21:03;;;;;;;23.67;13.70;;;8.20;99.90;;;;;;3504219;41;20032;-84
2021/04/21 02:23:40;;;;;;;29.35;14.70;;;8.20;99.90;;;;;;3505170;40;20033;-86
2021/04/21 02:26:25;;;;;;;23.38;14.35;;;8.20;99.90;;;;;;3512580;41;20045;-87
2021/04/21 02:29:02;;;;;;;25.00;14.35;;;8.20;99.90;;;;;;3520500;40;20056;-89
2021/04/21 02:31:38;;;;;;;27.38;15.50;;;8.20;99.90;;;;;;3514559;41;20040;-87
2021/04/21 02:34:18;;;;;;;25.50;14.35;;;8.20;99.90;;;;;;3505952;41;20059;-83
2021/04/21 02:37:03;;;;;;;27.17;15.27;;;8.10;99.90;;;;;;3511978;41;20036;-85
2021/04/21 02:39:41;;;;;;;24.98;15.68;;;8.10;99.90;;;;;;3521495;40;20028;-82
2021/04/21 02:42:19;;;;;;;23.38;14.57;;;8.10;99.90;;;;;;3513493;40;20047;-86
2021/04/21 02:45:39;;;;;;;29.30;15.85;;;8.10;99.90;;;;;;3493994;41;20085;-90
2021/04/21 02:48:15;;;;;;;21.92;14.55;;;8.00;99.90;;;;;;3493158;41;20034;-87
2021/04/21 02:50:52;;;;;;;23.60;15.10;;;8.00;99.90;;;;;;3485157;41;20046;-86
2021/04/21 02:53:28;;;;;;;29.38;14.45;;;8.00;99.90;;;;;;3477135;41;20041;-85
2021/04/21 02:56:12;;;;;;;23.98;15.00;;;7.90;99.90;;;;;;3494635;41;20067;-85
2021/04/21 02:58:48;;;;;;;22.67;15.32;;;8.00;99.90;;;;;;3499994;41;20025;-87
2021/04/21 03:01:24;;;;;;;26.63;15.88;;;7.90;99.90;;;;;;3504557;41;20029;-86
2021/04/21 03:04:00;;;;;;;29.17;15.95;;;7.90;99.90;;;;;;3492464;41;20044;-86
2021/04/21 03:38:22;;;;;;;24.40;15.55;;;7.50;99.90;;;;;;3523077;41;19951;-87
2021/04/21 03:53:19;;;;;;;25.10;15.60;;;7.50;99.90;;;;;;3495629;41;20041;-87
2021/04/21 04:02:36;;;;;;;23.95;15.57;;;7.50;99.90;;;;;;3961029;23;20102;-86
2021/04/21 04:20:44;;;;;;;25.10;15.70;;;7.50;99.90;;;;;;5624465;23;20487;-85
2021/04/21 04:23:14;;;;;;;24.33;14.95;;;7.60;99.90;;;;;;3514814;41;20033;-88
2021/04/21 04:25:46;;;;;;;22.08;14.27;;;7.60;99.90;;;;;;3515014;41;20040;-90
2021/04/21 04:28:15;;;;;;;24.77;15.98;;;7.50;99.90;;;;;;3514720;41;20040;-89
2021/04/21 04:30:50;;;;;;;31.70;16.55;;;7.50;99.90;;;;;;3514560;41;20040;-88
2021/04/21 04:33:23;;;;;;;22.98;15.13;;;7.50;99.90;;;;;;3523420;41;20040;-88
2021/04/21 04:35:54;;;;;;;25.33;15.55;;;7.50;99.90;;;;;;3522623;41;20044;-87
2021/04/21 04:38:22;;;;;;;25.95;14.95;;;7.50;99.90;;;;;;3523223;41;20036;-90
2021/04/21 04:40:53;;;;;;;26.05;15.48;;;7.40;99.90;;;;;;3515621;41;20040;-84
2021/04/21 04:43:27;;;;;;;22.85;14.15;;;7.40;99.90;;;;;;3503850;41;20037;-88
2021/04/21 04:46:01;;;;;;;25.77;15.93;;;7.50;99.90;;;;;;3481815;41;20082;-86
2021/04/21 04:48:41;;;;;;;26.55;15.50;;;7.40;99.90;;;;;;3479769;41;20033;-86
2021/04/21 04:51:12;;;;;;;25.95;15.48;;;7.40;99.90;;;;;;3480090;41;20065;-86
2021/04/21 04:53:46;;;;;;;28.23;15.57;;;7.40;99.90;;;;;;3503213;41;20040;-87
2021/04/21 04:56:16;;;;;;;27.35;15.50;;;7.30;99.90;;;;;;3495473;41;20082;-85
2021/04/21 04:58:46;;;;;;;31.27;15.48;;;7.30;99.90;;;;;;3494949;41;20094;-85
2021/04/21 05:01:17;;;;;;;25.23;15.73;;;7.30;99.90;;;;;;3486845;41;20069;-84
2021/04/21 05:03:51;;;;;;;30.00;16.20;;;7.30;99.90;;;;;;3486970;41;20108;-87
2021/04/21 05:06:32;;;;;;;30.10;15.88;;;7.20;99.90;;;;;;3495023;41;20029;-87
2021/04/21 05:09:04;;;;;;;25.88;16.52;;;7.30;99.90;;;;;;3494943;41;20061;-87
2021/04/21 05:11:39;;;;;;;25.35;16.33;;;7.40;99.90;;;;;;3487421;41;20040;-87
2021/04/21 05:14:12;;;;;;;30.42;16.10;;;7.40;99.90;;;;;;3493315;41;20036;-85
2021/04/21 05:20:48;;;;;;;28.98;15.60;;;7.60;99.90;;;;;;3514741;40;20036;-85
2021/04/21 05:47:30;;;;;;;25.40;11.43;;;8.00;99.90;;;;;;3513153;41;20031;-85
2021/04/21 05:50:54;;;;;;;20.45;12.02;;;8.10;99.90;;;;;;3524013;40;20042;-84
2021/04/21 05:54:08;;;;;;;19.73;10.95;;;8.20;99.90;;;;;;3505721;41;20051;-86
2021/04/21 06:06:02;;;;;;;26.52;9.70;;;8.90;99.90;;;;;;3520881;40;20066;-85
2021/04/21 06:08:33;;;;;;;27.88;10.20;;;9.20;99.90;;;;;;3518555;41;20056;-86
2021/04/21 06:11:01;;;;;;;31.20;8.75;;;9.30;99.90;;;;;;3513114;40;20048;-88
2021/04/21 06:13:30;;;;;;;31.67;8.40;;;9.40;99.90;;;;;;3512821;41;20043;-88
2021/04/21 06:15:58;;;;;;;25.90;9.07;;;9.50;99.90;;;;;;3513405;41;20039;-86
2021/04/21 06:18:33;;;;;;;16.80;7.15;;;9.60;99.90;;;;;;3521535;40;20036;-87
2021/04/21 06:21:02;;;;;;;20.15;7.95;;;9.70;99.90;;;;;;3520484;41;20040;-85
2021/04/21 06:23:56;;;;;;;18.45;6.75;;;9.70;99.90;;;;;;3520450;41;20052;-84
2021/04/21 06:26:27;;;;;;;10.98;6.13;;;9.80;99.90;;;;;;3521911;41;20036;-84
2021/04/21 06:29:03;;;;;;;13.23;6.97;;;9.80;99.90;;;;;;3522252;40;20029;-83
2021/04/21 06:31:50;;;;;;;14.10;6.55;;;10.00;99.90;;;;;;3507023;41;20081;-82
2021/04/21 06:37:52;;;;;;;12.55;6.07;;;10.10;99.90;;;;;;3495803;41;20029;-87
2021/04/21 06:40:26;;;;;;;20.60;6.50;;;10.30;99.90;;;;;;3510593;41;20033;-87
2021/04/21 06:43:25;;;;;;;9.23;5.80;;;10.40;99.90;;;;;;3485741;41;20042;-87
2021/04/21 06:45:53;;;;;;;11.95;5.75;;;10.50;99.90;;;;;;3485358;41;20029;-87
2021/04/21 06:48:29;;;;;;;15.90;7.25;;;10.50;99.90;;;;;;3492845;41;20038;-86
2021/04/21 06:51:07;;;;;;;17.48;6.97;;;10.60;99.90;;;;;;3480955;41;20070;-84
2021/04/21 06:53:35;;;;;;;20.90;7.00;;;10.70;99.90;;;;;;3482661;41;20070;-83
2021/04/21 06:56:08;;;;;;;26.73;7.82;;;10.60;99.90;;;;;;3470920;41;20045;-85
2021/04/21 06:58:38;;;;;;;19.00;6.82;;;10.70;99.90;;;;;;3482487;41;20058;-85
2021/04/21 07:01:11;;;;;;;22.55;7.28;;;10.70;99.90;;;;;;3481123;41;20026;-88
2021/04/21 07:03:42;;;;;;;22.80;8.23;;;10.80;99.90;;;;;;3511251;41;20044;-84
2021/04/21 07:06:11;;;;;;;26.25;7.63;;;10.90;99.90;;;;;;3494133;41;20057;-83
2021/04/21 07:08:39;;;;;;;;;;;11.10;99.90;;;;;;3477416;41;20049;-84
2021/04/21 07:11:10;;;;;;;32.40;7.68;;;11.20;99.80;;;;;;3478731;41;19940;-87
2021/04/21 07:13:44;;;;;;;26.48;8.13;;;11.40;98.80;;;;;;3490673;41;20040;-85
2021/04/21 07:16:16;;;;;;;15.65;6.20;;;11.40;98.40;;;;;;3496965;41;20060;-88
2021/04/21 07:18:50;;;;;;;16.08;6.75;;;11.50;98.50;;;;;;3498113;41;20067;-89
2021/04/21 07:21:21;;;;;;;17.40;6.30;;;11.60;97.60;;;;;;3489852;41;20113;-85
2021/04/21 07:23:56;;;;;;;13.02;5.55;;;11.70;96.80;;;;;;3514055;41;20044;-86
2021/04/21 07:26:28;;;;;;;12.48;5.38;;;11.70;96.40;;;;;;3506310;40;20368;-86
2021/04/21 07:28:58;;;;;;;13.82;5.43;;;11.80;96.10;;;;;;3488857;41;20041;-85
2021/04/21 07:31:28;;;;;;;13.25;6.40;;;11.90;95.60;;;;;;3493600;41;20145;-88
2021/04/21 07:33:56;;;;;;;16.40;5.95;;;12.00;95.10;;;;;;3493428;41;20068;-82
2021/04/21 07:36:26;;;;;;;14.15;5.53;;;12.00;93.80;;;;;;3511680;41;20044;-84
2021/04/21 07:38:56;;;;;;;12.55;5.55;;;12.10;94.50;;;;;;3519199;41;20044;-84
2021/04/21 07:41:35;;;;;;;13.25;6.00;;;12.20;93.60;;;;;;3507071;41;20045;-85
2021/04/21 07:44:07;;;;;;;13.57;5.57;;;12.30;93.50;;;;;;3513469;41;20052;-84
2021/04/21 07:46:34;;;;;;;11.70;5.25;;;12.30;93.20;;;;;;3497458;41;20036;-85
2021/04/21 07:49:07;;;;;;;15.70;5.68;;;12.40;92.90;;;;;;3513664;41;20032;-84
2021/04/21 07:51:41;;;;;;;13.43;6.07;;;12.50;92.50;;;;;;3513548;41;20051;-84
2021/04/21 07:54:28;;;;;;;17.73;6.20;;;12.60;91.70;;;;;;3504229;41;20429;-84
2021/04/21 07:57:03;;;;;;;15.98;5.97;;;12.70;92.10;;;;;;3505725;41;20037;-88
2021/04/21 07:59:32;;;;;;;16.15;6.18;;;12.70;91.50;;;;;;3497414;41;20028;-87
2021/04/21 08:02:14;;;;;;;11.25;5.72;;;12.80;91.50;;;;;;3495159;41;20044;-84
2021/04/21 08:04:50;;;;;;;13.13;6.45;;;12.90;91.00;;;;;;3509307;40;20044;-83
2021/04/21 08:07:38;;;;;;;13.82;6.30;;;13.00;91.00;;;;;;3508638;41;20059;-85
2021/04/21 08:10:25;;;;;;;17.83;5.88;;;13.10;90.00;;;;;;3514248;41;20032;-85
2021/04/21 08:12:54;;;;;;;15.85;5.82;;;13.20;88.80;;;;;;3505861;41;20132;-84
2021/04/21 08:15:27;;;;;;;;;;;13.30;86.40;;;;;;3513251;41;20051;-84
2021/04/21 08:17:58;;;;;;;8.43;4.68;;;13.40;82.40;;;;;;3512794;41;19935;-84
2021/04/21 08:20:32;;;;;;;10.43;3.90;;;13.60;80.30;;;;;;3507962;40;20063;-88
2021/04/21 08:23:03;;;;;;;11.93;5.25;;;13.60;77.90;;;;;;3510087;41;20459;-87
2021/04/21 08:25:36;;;;;;;10.52;4.43;;;13.70;76.50;;;;;;3480528;41;20081;-87
2021/04/21 08:28:07;;;;;;;14.35;4.30;;;13.90;75.80;;;;;;3501960;41;20276;-86
2021/04/21 08:30:34;;;;;;;9.52;4.07;;;13.90;75.00;;;;;;3496909;41;20108;-87
2021/04/21 08:33:10;;;;;;;14.38;4.53;;;14.00;73.10;;;;;;3510409;41;20535;-86
2021/04/21 08:35:37;;;;;;;12.82;4.45;;;14.00;70.90;;;;;;3495723;41;20047;-86
2021/04/21 08:38:04;;;;;;;12.15;4.57;;;14.00;70.70;;;;;;3496857;41;20056;-85
2021/04/21 08:40:40;;;;;;;16.40;5.13;;;14.10;71.60;;;;;;3505929;41;20108;-88
2021/04/21 08:43:09;;;;;;;14.63;5.80;;;14.10;71.00;;;;;;3504553;40;20036;-84
2021/04/21 08:54:55;;;;;;;12.52;4.40;;;14.50;73.80;;;;;;3532143;40;20043;-90
2021/04/21 09:27:26;;;;;;;14.68;4.57;;;15.80;55.10;;;;;;3532610;40;20036;-90
2021/04/21 09:30:14;;;;;;;12.25;4.70;;;15.80;56.10;;;;;;3505650;41;20047;-85
2021/04/21 09:32:47;;;;;;;10.68;3.92;;;15.70;56.20;;;;;;3519892;40;20089;-89
2021/04/21 09:35:19;;;;;;;11.68;4.28;;;15.70;56.00;;;;;;3506132;41;20054;-88
2021/04/21 09:37:47;;;;;;;12.65;4.28;;;15.70;56.30;;;;;;3531714;40;20292;-87
2021/04/21 09:40:34;;;;;;;8.63;3.92;;;15.70;56.10;;;;;;3522356;40;20036;-88
2021/04/21 09:43:04;;;;;;;16.27;5.07;;;15.80;56.10;;;;;;3513184;40;20067;-86
2021/04/21 09:45:41;;;;;;;11.75;3.75;;;15.80;56.10;;;;;;3526572;40;20048;-87
2021/04/21 09:48:13;;;;;;;15.80;5.43;;;15.90;55.70;;;;;;3522961;40;20024;-87
2021/04/21 09:50:43;;;;;;;17.92;4.40;;;16.00;54.90;;;;;;3514201;41;20289;-87
2021/04/21 09:53:25;;;;;;;8.85;3.53;;;16.20;53.90;;;;;;3517346;41;20055;-87
2021/04/21 09:58:43;;;;;;;9.68;3.90;;;17.30;51.60;;;;;;3522496;40;20039;-90
2021/04/21 10:01:33;;;;;;;15.95;5.03;;;18.10;50.00;;;;;;3560539;23;20364;31
2021/04/21 10:04:09;;;;;;;10.82;4.10;;;18.70;48.50;;;;;;3556691;23;20047;-88
2021/04/21 10:06:44;;;;;;;17.23;4.25;;;19.20;45.20;;;;;;3548760;23;20096;-86
2021/04/21 10:09:32;;;;;;;13.18;4.70;;;19.70;44.00;;;;;;3496089;41;20136;-87
2021/04/21 10:12:18;;;;;;;12.60;4.93;;;20.00;43.90;;;;;;3512411;41;20172;-87
2021/04/21 10:15:01;;;;;;;10.95;4.20;;;20.30;42.90;;;;;;3505894;41;20040;-88
2021/04/21 10:17:31;;;;;;;7.53;3.70;;;20.80;42.80;;;;;;3511647;41;20148;-86
2021/04/21 10:20:00;;;;;;;;;;;21.40;40.70;;;;;;3511500;41;20065;-85
2021/04/21 10:22:31;;;;;;;9.43;4.32;;;21.90;39.50;;;;;;3501857;41;19975;-85
2021/04/21 10:25:00;;;;;;;12.90;4.78;;;22.20;37.90;;;;;;3518295;41;20460;-88
2021/04/21 10:27:33;;;;;;;8.82;3.65;;;22.30;37.40;;;;;;3520590;41;20048;-86
2021/04/21 10:30:06;;;;;;;7.07;4.03;;;22.30;37.20;;;;;;3520582;40;20069;-85
2021/04/21 10:32:37;;;;;;;9.93;3.83;;;22.90;38.70;;;;;;3521125;41;20064;-86
2021/04/21 10:35:06;;;;;;;11.20;4.65;;;23.80;36.70;;;;;;3517146;41;20088;-84
2021/04/21 10:37:34;;;;;;;12.10;3.67;;;24.40;34.70;;;;;;3515484;41;20099;-82
2021/04/21 10:40:06;;;;;;;14.55;4.78;;;24.90;33.50;;;;;;3509938;41;20068;-87
2021/04/21 10:42:47;;;;;;;10.30;4.40;;;25.10;32.40;;;;;;3510905;41;20389;-85
2021/04/21 10:45:18;;;;;;;10.73;3.92;;;25.50;32.90;;;;;;3520714;41;20060;-87
2021/04/21 10:47:47;;;;;;;9.13;4.03;;;26.30;32.40;;;;;;3493781;41;20092;-86
2021/04/21 10:50:36;;;;;;;11.32;4.95;;;27.00;32.10;;;;;;3518374;41;20084;-86
2021/04/21 10:53:06;;;;;;;9.77;3.92;;;27.60;30.80;;;;;;3507391;41;20063;-84
2021/04/21 10:55:54;;;;;;;13.07;4.07;;;27.10;31.00;;;;;;3509734;40;20099;-84
2021/04/21 10:58:22;;;;;;;8.00;3.78;;;27.20;31.20;;;;;;3510997;41;20152;-82
2021/04/21 11:00:58;;;;;;;12.73;5.38;;;27.60;31.30;;;;;;3508627;40;20080;-84
2021/04/21 11:03:41;;;;;;;8.23;4.37;;;27.70;30.90;;;;;;3493458;40;20036;-82
2021/04/21 11:06:51;;;;;;;12.63;4.78;;;28.60;30.30;;;;;;3502327;40;20067;-83
2021/04/21 11:09:20;;;;;;;11.05;4.63;;;29.40;29.60;;;;;;3501443;41;20072;-83
2021/04/21 11:11:57;;;;;;;7.50;4.85;;;29.40;29.70;;;;;;3518698;40;20056;-83
2021/04/21 11:14:59;;;;;;;8.65;4.53;;;30.10;29.30;;;;;;3511951;41;20088;-83
2021/04/21 11:18:16;;;;;;;10.10;5.35;;;30.20;28.60;;;;;;3482083;41;20384;-85
2021/04/21 11:21:12;;;;;;;9.85;4.50;;;29.50;28.80;;;;;;3514642;41;20083;-83
2021/04/21 11:24:13;;;;;;;9.45;4.95;;;27.80;29.80;;;;;;3506942;41;20352;-84
2021/04/21 11:26:44;;;;;;;12.43;4.82;;;26.70;30.70;;;;;;3506113;41;20384;-81
2021/04/21 11:29:16;;;;;;;10.32;4.82;;;26.40;30.90;;;;;;3515740;41;20103;-82
2021/04/21 11:32:18;;;;;;;12.52;4.30;;;25.60;31.50;;;;;;3516061;41;20083;-82
2021/04/21 11:34:47;;;;;;;9.05;4.72;;;26.20;31.90;;;;;;3506658;41;20068;-85
2021/04/21 11:37:42;;;;;;;14.60;4.53;;;27.60;31.10;;;;;;3516325;41;20115;-82
2021/04/21 11:40:28;;;;;;;14.30;5.75;;;29.20;29.80;;;;;;3506515;41;20176;-85
2021/04/21 11:43:13;;;;;;;8.90;3.90;;;30.80;28.60;;;;;;3514050;40;20087;-84
2021/04/21 11:45:43;;;;;;;10.45;4.20;;;31.20;28.40;;;;;;3495996;41;20092;-84
2021/04/21 11:48:20;;;;;;;7.00;4.05;;;30.30;28.30;;;;;;3504533;41;20072;-84
2021/04/21 11:50:50;;;;;;;8.75;4.57;;;29.80;28.60;;;;;;3514056;41;20072;-86
2021/04/21 11:53:20;;;;;;;7.05;4.25;;;30.00;28.40;;;;;;3520381;40;20077;-84
2021/04/21 11:55:55;;;;;;;8.85;4.60;;;30.30;28.30;;;;;;3506613;41;20088;-84
2021/04/21 11:58:26;;;;;;;10.95;4.97;;;30.00;28.10;;;;;;3504812;41;20087;-86
2021/04/21 12:00:55;;;;;;;10.48;5.30;;;29.30;28.10;;;;;;3506450;41;20136;-85
2021/04/21 12:03:28;;;;;;;14.25;5.55;;;27.80;28.80;;;;;;3485139;41;20140;-84
2021/04/21 12:05:58;;;;;;;18.95;5.32;;;26.90;29.10;;;;;;3475102;41;20100;-83
2021/04/21 12:08:29;;;;;;;14.40;4.85;;;26.40;29.70;;;;;;3475598;41;20092;-83
2021/04/21 12:10:59;;;;;;;8.73;4.63;;;27.60;29.10;;;;;;3484511;41;20096;-84
2021/04/21 12:13:29;;;;;;;12.52;4.80;;;27.60;27.90;;;;;;3484186;41;20094;-84
2021/04/21 12:16:01;;;;;;;8.50;4.55;;;28.10;28.60;;;;;;3499919;41;20039;-84
2021/04/21 12:18:35;;;;;;;7.80;3.70;;;29.20;27.40;;;;;;3487253;41;20088;-83
2021/04/21 12:21:21;;;;;;;7.53;3.90;;;30.50;27.00;;;;;;3485176;41;20348;-83
2021/04/21 12:23:53;;;;;;;9.10;4.10;;;31.30;26.20;;;;;;3492979;41;20076;-83
2021/04/21 12:26:25;;;;;;;7.57;4.07;;;32.40;25.60;;;;;;3482068;41;20096;-85
2021/04/21 12:28:54;;;;;;;19.23;4.68;;;32.90;25.10;;;;;;3493447;41;20039;-84
2021/04/21 12:31:23;;;;;;;7.38;4.00;;;33.10;24.60;;;;;;3484555;41;20205;-84
2021/04/21 12:33:53;;;;;;;9.75;3.80;;;32.40;24.90;;;;;;3488378;41;20072;-84
2021/04/21 12:36:23;;;;;;;7.15;3.92;;;31.80;25.10;;;;;;3503412;41;20080;-85
2021/04/21 12:39:06;;;;;;;8.80;4.00;;;31.70;24.80;;;;;;3504174;41;20408;-84
2021/04/21 12:41:34;;;;;;;8.85;4.10;;;32.30;24.50;;;;;;3510078;41;20068;-82
2021/04/21 12:44:23;;;;;;;7.13;4.28;;;32.80;24.20;;;;;;3503569;41;20104;-83
2021/04/21 12:46:53;;;;;;;7.10;3.95;;;32.80;24.20;;;;;;3466397;41;20066;-83
2021/04/21 12:49:32;;;;;;;7.97;3.83;;;33.40;23.50;;;;;;3475336;41;20098;-83
2021/04/21 12:52:03;;;;;;;;;;;33.30;23.90;;;;;;3471507;41;20097;-84
2021/04/21 12:54:33;;;;;;;8.52;4.28;;;31.70;23.80;;;;;;3467854;41;20065;-83
2021/04/21 12:57:05;;;;;;;8.45;3.28;;;31.50;24.60;;;;;;3466561;41;20073;-87
2021/04/21 12:59:43;;;;;;;8.98;4.07;;;31.60;23.70;;;;;;3467428;41;20065;-85
2021/04/21 13:02:18;;;;;;;9.27;4.40;;;32.10;23.90;;;;;;3469580;41;20109;-83
2021/04/21 13:04:48;;;;;;;7.43;3.30;;;32.80;23.80;;;;;;3462683;41;20074;-84
2021/04/21 13:07:20;;;;;;;6.38;3.50;;;33.80;24.00;;;;;;3491249;41;20119;-83
2021/04/21 13:09:48;;;;;;;13.45;4.10;;;33.20;24.10;;;;;;3490006;41;20097;-84
2021/04/21 13:12:20;;;;;;;9.60;3.92;;;33.40;24.40;;;;;;3484247;41;20089;-85
2021/04/21 13:14:50;;;;;;;13.63;4.07;;;33.20;24.10;;;;;;3482860;41;20053;-85
2021/04/21 13:17:23;;;;;;;9.57;4.15;;;33.40;24.10;;;;;;3475331;41;20394;-85
2021/04/21 13:19:54;;;;;;;7.82;4.07;;;33.80;23.90;;;;;;3475901;41;20077;-86
2021/04/21 13:22:28;;;;;;;8.43;3.78;;;33.70;23.70;;;;;;3485692;41;20073;-85
2021/04/21 13:24:58;;;;;;;8.45;3.45;;;34.20;23.80;;;;;;3507150;40;20420;-85
2021/04/21 13:27:31;;;;;;;5.82;3.45;;;34.30;24.30;;;;;;3508005;40;20076;-87
2021/04/21 13:30:08;;;;;;;7.38;3.58;;;34.80;24.20;;;;;;3506852;40;20076;-84
2021/04/21 13:32:44;;;;;;;11.25;3.90;;;35.10;24.00;;;;;;3505172;40;20098;-84
2021/04/21 13:35:13;;;;;;;12.13;3.53;;;34.80;23.70;;;;;;3513076;40;20080;-83
2021/04/21 13:37:44;;;;;;;6.00;3.22;;;35.00;23.60;;;;;;3512711;40;20419;-83
2021/04/21 13:40:29;;;;;;;6.65;3.25;;;34.80;23.50;;;;;;3504694;40;20480;-84
2021/04/21 13:43:31;;;;;;;5.97;3.33;;;34.70;23.50;;;;;;3479399;41;20093;-84
2021/04/21 13:46:00;;;;;;;8.45;3.53;;;34.60;23.20;;;;;;3481415;41;20444;-83
2021/04/21 13:48:32;;;;;;;10.57;3.40;;;34.50;23.40;;;;;;3479405;41;20441;-84
2021/04/21 13:51:02;;;;;;;11.63;4.13;;;34.40;23.40;;;;;;3475430;41;20141;-86
2021/04/21 13:53:34;;;;;;;9.70;3.70;;;34.90;23.70;;;;;;3482376;41;20090;-83
2021/04/21 13:56:04;;;;;;;9.52;3.40;;;35.10;23.40;;;;;;3476711;41;20073;-84
2021/04/21 13:58:43;;;;;;;10.07;3.58;;;35.50;23.10;;;;;;3479802;41;20077;-85
2021/04/21 14:01:11;;;;;;;9.57;3.40;;;34.60;23.00;;;;;;3480629;41;20181;-84
2021/04/21 14:03:38;;;;;;;12.52;3.67;;;33.80;23.30;;;;;;3479524;41;20450;-85
2021/04/21 14:06:06;;;;;;;5.88;3.30;;;34.00;23.70;;;;;;3477677;41;20094;-82
2021/04/21 14:08:34;;;;;;;5.63;3.10;;;34.40;23.20;;;;;;3477413;41;20085;-83
2021/04/21 14:11:02;;;;;;;8.20;3.33;;;34.90;23.20;;;;;;3463023;41;20100;-86
2021/04/21 14:13:32;;;;;;;5.63;3.30;;;35.10;22.70;;;;;;3468523;41;20093;-84
2021/04/21 14:16:04;;;;;;;8.40;3.20;;;34.20;23.00;;;;;;3485167;41;20077;-84
2021/04/21 14:18:33;;;;;;;9.23;3.88;;;34.40;23.00;;;;;;3491611;41;20104;-85
2021/04/21 14:21:04;;;;;;;9.35;3.47;;;34.20;22.90;;;;;;3483018;41;20097;-84
2021/04/21 14:23:32;;;;;;;7.72;3.80;;;34.00;22.90;;;;;;3475417;41;20373;-83
2021/04/21 14:26:01;;;;;;;9.18;3.50;;;33.60;23.10;;;;;;3483592;41;20084;-86
2021/04/21 14:28:31;;;;;;;7.95;3.75;;;33.60;23.10;;;;;;3484104;41;20472;-83
2021/04/21 14:31:00;;;;;;;9.35;4.05;;;32.50;22.90;;;;;;3484267;41;20207;-86
2021/04/21 14:33:28;;;;;;;10.88;4.50;;;31.90;23.70;;;;;;3483257;41;20084;-84
2021/04/21 14:35:57;;;;;;;6.67;3.63;;;32.00;23.70;;;;;;3482951;41;20429;-83
2021/04/21 14:38:28;;;;;;;7.05;3.65;;;32.40;23.80;;;;;;3499750;41;20418;-85
2021/04/21 14:40:59;;;;;;;8.40;4.07;;;32.70;23.40;;;;;;3490683;41;20093;-86
2021/04/21 14:43:31;;;;;;;9.73;4.40;;;32.00;23.50;;;;;;3511089;41;20108;-84
2021/04/21 14:46:01;;;;;;;7.68;3.80;;;32.50;23.70;;;;;;3510964;40;20100;-83
2021/04/21 14:48:35;;;;;;;8.85;3.47;;;33.00;23.50;;;;;;3502357;41;20083;-83
2021/04/21 14:51:07;;;;;;;7.53;3.97;;;33.30;23.60;;;;;;3517773;40;20060;-85
2021/04/21 14:53:43;;;;;;;7.85;4.28;;;33.20;23.40;;;;;;3502770;41;20089;-86
2021/04/21 14:56:36;;;;;;;14.75;4.05;;;32.50;23.70;;;;;;3510375;41;20088;-86
2021/04/21 14:59:09;;;;;;;11.25;3.75;;;33.00;23.70;;;;;;3484647;41;20073;-83
2021/04/21 15:01:44;;;;;;;7.45;3.90;;;33.90;23.50;;;;;;3476133;41;20105;-84
2021/04/21 15:04:14;;;;;;;11.85;3.92;;;34.30;23.40;;;;;;3492237;41;20137;-84
2021/04/21 15:06:54;;;;;;;8.57;3.88;;;34.20;23.20;;;;;;3476044;41;20068;-85
2021/04/21 15:09:22;;;;;;;6.28;3.35;;;34.00;23.00;;;;;;3492523;41;20081;-85
2021/04/21 15:11:52;;;;;;;11.77;4.57;;;32.90;23.20;;;;;;3480253;41;20061;-84
2021/04/21 15:14:21;;;;;;;10.52;3.80;;;32.80;23.40;;;;;;3482801;41;20076;-81
2021/04/21 15:16:51;;;;;;;10.52;4.00;;;33.00;23.60;;;;;;3494306;41;20061;-84
2021/04/21 15:19:20;;;;;;;11.18;3.78;;;32.90;23.30;;;;;;3499989;41;20048;-84
2021/04/21 15:21:50;;;;;;;10.70;4.65;;;32.10;23.50;;;;;;3485996;41;20093;-84
2021/04/21 15:24:21;;;;;;;7.10;3.88;;;31.50;23.80;;;;;;3491373;41;20061;-82
2021/04/21 15:26:58;;;;;;;7.40;4.20;;;31.30;24.20;;;;;;3494208;41;20101;-84
2021/04/21 15:29:35;;;;;;;7.53;4.13;;;30.90;24.60;;;;;;3476932;41;20089;-85
2021/04/21 15:32:08;;;;;;;9.98;4.65;;;30.90;24.60;;;;;;3481239;41;20086;-85
2021/04/21 15:34:40;;;;;;;8.90;3.88;;;30.40;24.70;;;;;;3483044;41;20372;-85
2021/04/21 15:37:09;;;;;;;9.90;4.00;;;29.80;24.80;;;;;;3484983;41;20077;-85
2021/04/21 15:39:39;;;;;;;9.82;4.10;;;28.70;25.10;;;;;;3488263;41;20082;-83
2021/04/21 15:42:12;;;;;;;11.30;4.80;;;27.30;25.90;;;;;;3474803;41;20101;-86
2021/04/21 15:44:50;;;;;;;12.43;4.17;;;26.60;26.90;;;;;;3477415;41;20069;-84
2021/04/21 15:47:18;;;;;;;8.95;4.55;;;26.90;26.90;;;;;;3484953;41;20321;-84
2021/04/21 15:49:48;;;;;;;10.45;5.10;;;27.20;27.20;;;;;;3492532;41;20108;-84
2021/04/21 15:52:20;;;;;;;10.77;4.55;;;27.80;27.20;;;;;;3510806;40;20139;-84
2021/04/21 15:54:50;;;;;;;8.50;5.05;;;28.40;26.90;;;;;;3497338;40;20092;-84
2021/04/21 15:57:21;;;;;;;10.13;4.28;;;29.10;26.50;;;;;;3493725;41;20443;-84
2021/04/21 15:59:57;;;;;;;9.00;4.75;;;29.70;26.30;;;;;;3500772;40;20110;-86
2021/04/21 16:02:38;;;;;;;9.30;4.60;;;29.50;26.00;;;;;;3513123;40;20165;-84
2021/04/21 16:05:16;;;;;;;13.98;5.30;;;29.80;25.60;;;;;;3493809;40;20404;-83
2021/04/21 16:07:48;;;;;;;7.22;4.15;;;29.50;25.70;;;;;;3489920;41;20092;-83
2021/04/21 16:10:22;;;;;;;12.00;5.45;;;29.30;25.70;;;;;;3501549;41;20087;-85
2021/04/21 16:12:52;;;;;;;9.50;4.20;;;29.10;25.70;;;;;;3503708;41;20092;-84
2021/04/21 16:15:22;;;;;;;8.98;4.25;;;29.00;25.60;;;;;;3495716;41;20202;-82
2021/04/21 16:17:50;;;;;;;11.70;4.15;;;28.80;25.50;;;;;;3493940;41;20093;-83
2021/04/21 16:20:29;;;;;;;8.43;3.60;;;28.60;25.30;;;;;;3502696;41;20191;-85
2021/04/21 16:22:57;;;;;;;14.85;4.80;;;28.10;25.90;;;;;;3494058;41;20300;-84
2021/04/21 16:25:28;;;;;;;12.35;4.60;;;27.60;26.10;;;;;;3486431;41;20316;-84
2021/04/21 16:27:56;;;;;;;16.45;4.78;;;27.00;26.60;;;;;;3502488;41;20410;-84
2021/04/21 16:30:26;;;;;;;10.23;4.55;;;26.40;26.90;;;;;;3486531;41;20068;-84
2021/04/21 16:32:57;;;;;;;15.90;5.13;;;26.00;27.30;;;;;;3485371;41;20092;-84
2021/04/21 16:35:26;;;;;;;11.55;4.88;;;25.70;27.60;;;;;;3485668;41;20073;-85